Time,TemperatureF,DewpointF,PressureIn,WindDirection,WindDirectionDegrees,WindSpeedMPH,WindSpeedGustMPH,Humidity,HourlyPrecipIn,Conditions,Clouds,dailyrainin,SolarRadiationWatts/m^2,SoftwareType,DateUTC
2013-03-06 00:08:00,9.3,7.0,30.61,East,101,8.0,10.0,88,0.00,,,0.00,0,weatherlink.com 1.10,2013-03-06 07:08:00,
2013-03-06 00:22:00,9.0,6.0,30.61,SE,126,5.0,9.0,88,0.00,,,0.00,0,weatherlink.com 1.10,2013-03-06 07:22:00,
2013-03-06 00:37:00,8.8,6.0,30.60,SE,135,6.0,10.0,88,0.00,,,0.00,0,weatherlink.com 1.10,2013-03-06 07:37:00,
2013-03-06 00:53:00,8.9,6.0,30.60,East,101,8.0,14.0,88,0.00,,,0.00,0,weatherlink.com 1.10,2013-03-06 07:53:00,
2013-03-06 01:08:00,9.0,6.0,30.60,SSE,150,6.0,9.0,89,0.00,,,0.00,0,weatherlink.com 1.10,2013-03-06 08:08:00,
2013-03-06 01:23:00,9.0,6.0,30.60,SE,143,8.0,13.0,89,0.00,,,0.00,0,weatherlink.com 1.10,2013-03-06 08:23:00,
2013-03-06 01:38:00,9.0,6.0,30.60,East,87,7.0,11.0,89,0.00,,,0.00,0,weatherlink.com 1.10,2013-03-06 08:38:00,
2013-03-06 01:53:00,8.7,6.0,30.59,ENE,61,10.0,13.0,90,0.00,,,0.00,0,weatherlink.com 1.10,2013-03-06 08:53:00,
2013-03-06 02:08:00,8.7,6.0,30.58,East,86,8.0,13.0,89,0.00,,,0.00,0,weatherlink.com 1.10,2013-03-06 09:08:00,
2013-03-06 02:23:00,8.7,6.0,30.58,ESE,109,7.0,13.0,90,0.00,,,0.00,0,weatherlink.com 1.10,2013-03-06 09:23:00,
2013-03-06 02:39:00,8.6,6.0,30.57,East,93,9.0,11.0,89,0.00,,,0.00,0,weatherlink.com 1.10,2013-03-06 09:39:00,
2013-03-06 02:54:00,8.6,6.0,30.56,ESE,119,7.0,13.0,89,0.00,,,0.00,0,weatherlink.com 1.10,2013-03-06 09:54:00,
2013-03-06 03:09:00,8.5,6.0,30.56,SE,139,4.0,10.0,89,0.00,,,0.00,0,weatherlink.com 1.10,2013-03-06 10:09:00,
2013-03-06 03:24:00,8.3,6.0,30.55,ESE,104,9.0,13.0,89,0.00,,,0.00,0,weatherlink.com 1.10,2013-03-06 10:24:00,
2013-03-06 03:39:00,8.2,6.0,30.55,ESE,111,8.0,13.0,89,0.00,,,0.00,0,weatherlink.com 1.10,2013-03-06 10:39:00,
2013-03-06 03:54:00,8.1,6.0,30.54,ESE,118,8.0,11.0,89,0.00,,,0.00,0,weatherlink.com 1.10,2013-03-06 10:54:00,
2013-03-06 04:09:00,8.1,6.0,30.54,ESE,111,7.0,11.0,89,0.00,,,0.00,0,weatherlink.com 1.10,2013-03-06 11:09:00,
2013-03-06 04:24:00,8.1,6.0,30.54,ESE,111,8.0,10.0,89,0.00,,,0.00,0,weatherlink.com 1.10,2013-03-06 11:24:00,
2013-03-06 04:40:00,7.8,5.0,30.54,SE,138,4.0,9.0,89,0.00,,,0.00,0,weatherlink.com 1.10,2013-03-06 11:40:00,
2013-03-06 04:54:00,7.7,5.0,30.54,ESE,103,8.0,10.0,89,0.00,,,0.00,0,weatherlink.com 1.10,2013-03-06 11:54:00,
2013-03-06 05:09:00,8.1,6.0,30.53,ESE,113,7.0,11.0,89,0.00,,,0.00,0,weatherlink.com 1.10,2013-03-06 12:09:00,
2013-03-06 05:25:00,8.4,6.0,30.52,East,88,7.0,14.0,89,0.00,,,0.00,0,weatherlink.com 1.10,2013-03-06 12:25:00,
2013-03-06 05:40:00,8.8,6.0,30.52,SE,131,9.0,13.0,89,0.00,,,0.00,0,weatherlink.com 1.10,2013-03-06 12:40:00,
2013-03-06 05:54:00,8.6,6.0,30.52,ESE,115,7.0,13.0,89,0.00,,,0.00,0,weatherlink.com 1.10,2013-03-06 12:54:00,
2013-03-06 06:10:00,8.6,6.0,30.52,ESE,107,8.0,11.0,90,0.00,,,0.00,0,weatherlink.com 1.10,2013-03-06 13:10:00,
2013-03-06 06:24:00,8.9,7.0,30.50,East,101,9.0,15.0,90,0.00,,,0.00,0,weatherlink.com 1.10,2013-03-06 13:24:00,
2013-03-06 06:39:00,9.2,7.0,30.50,East,88,10.0,14.0,89,0.00,,,0.00,7,weatherlink.com 1.10,2013-03-06 13:39:00,
2013-03-06 06:55:00,9.6,7.0,30.50,ESE,102,10.0,15.0,89,0.00,,,0.00,28,weatherlink.com 1.10,2013-03-06 13:55:00,
2013-03-06 07:10:00,9.7,7.0,30.50,SE,126,9.0,13.0,89,0.00,,,0.00,53,weatherlink.com 1.10,2013-03-06 14:10:00,
2013-03-06 07:25:00,10.2,8.0,30.49,East,88,9.0,15.0,89,0.00,,,0.00,79,weatherlink.com 1.10,2013-03-06 14:25:00,
2013-03-06 07:40:00,10.0,7.0,30.49,East,86,11.0,17.0,89,0.00,,,0.00,81,weatherlink.com 1.10,2013-03-06 14:40:00,
2013-03-06 07:55:00,10.5,8.0,30.50,SE,146,7.0,15.0,90,0.00,,,0.00,127,weatherlink.com 1.10,2013-03-06 14:55:00,
2013-03-06 08:11:00,11.6,9.0,30.49,ESE,123,10.0,14.0,90,0.00,,,0.00,167,weatherlink.com 1.10,2013-03-06 15:11:00,
2013-03-06 08:25:00,12.7,10.0,30.47,SE,132,10.0,16.0,89,0.00,,,0.00,176,weatherlink.com 1.10,2013-03-06 15:25:00,
2013-03-06 08:40:00,13.2,11.0,30.47,ESE,108,13.0,16.0,89,0.00,,,0.00,225,weatherlink.com 1.10,2013-03-06 15:40:00,
2013-03-06 08:56:00,13.9,11.0,30.46,ESE,121,10.0,17.0,89,0.00,,,0.00,237,weatherlink.com 1.10,2013-03-06 15:56:00,
2013-03-06 09:11:00,14.5,12.0,30.45,East,92,13.0,22.0,88,0.00,,,0.00,271,weatherlink.com 1.10,2013-03-06 16:11:00,
2013-03-06 09:26:00,15.3,12.0,30.45,ESE,118,13.0,19.0,87,0.00,,,0.00,313,weatherlink.com 1.10,2013-03-06 16:26:00,
2013-03-06 09:41:00,16.1,13.0,30.44,ESE,117,16.0,17.0,87,0.00,,,0.00,318,weatherlink.com 1.10,2013-03-06 16:41:00,
2013-03-06 09:56:00,16.1,13.0,30.43,ESE,122,11.0,22.0,86,0.00,,,0.00,336,weatherlink.com 1.10,2013-03-06 16:56:00,
2013-03-06 10:11:00,16.7,13.0,30.43,SE,129,11.0,18.0,86,0.00,,,0.00,399,weatherlink.com 1.10,2013-03-06 17:11:00,
2013-03-06 10:26:00,17.7,14.0,30.42,ESE,121,11.0,16.0,86,0.00,,,0.00,438,weatherlink.com 1.10,2013-03-06 17:26:00,
2013-03-06 10:41:00,18.4,15.0,30.41,ESE,108,13.0,14.0,85,0.00,,,0.00,417,weatherlink.com 1.10,2013-03-06 17:41:00,
2013-03-06 10:57:00,18.8,15.0,30.40,SE,134,12.0,21.0,84,0.00,,,0.00,413,weatherlink.com 1.10,2013-03-06 17:57:00,
2013-03-06 11:11:00,19.5,15.0,30.39,East,80,11.0,15.0,83,0.00,,,0.00,499,weatherlink.com 1.10,2013-03-06 18:11:00,
2013-03-06 11:26:00,20.7,16.0,30.38,ESE,111,10.0,16.0,83,0.00,,,0.00,526,weatherlink.com 1.10,2013-03-06 18:26:00,
2013-03-06 11:41:00,21.3,16.0,30.37,SE,128,8.0,16.0,81,0.00,,,0.00,568,weatherlink.com 1.10,2013-03-06 18:41:00,
2013-03-06 11:56:00,21.9,17.0,30.36,East,100,8.0,21.0,81,0.00,,,0.00,531,weatherlink.com 1.10,2013-03-06 18:56:00,
2013-03-06 12:11:00,22.4,18.0,30.35,ESE,114,11.0,24.0,82,0.00,,,0.00,631,weatherlink.com 1.10,2013-03-06 19:11:00,
2013-03-06 12:26:00,23.0,18.0,30.35,ESE,119,15.0,19.0,82,0.00,,,0.00,578,weatherlink.com 1.10,2013-03-06 19:26:00,
2013-03-06 12:42:00,22.6,18.0,30.34,ENE,57,12.0,22.0,81,0.00,,,0.00,348,weatherlink.com 1.10,2013-03-06 19:42:00,
2013-03-06 12:56:00,23.1,18.0,30.32,SE,140,14.0,19.0,82,0.00,,,0.00,529,weatherlink.com 1.10,2013-03-06 19:56:00,
2013-03-06 13:12:00,23.6,19.0,30.32,SE,131,12.0,22.0,82,0.00,,,0.00,489,weatherlink.com 1.10,2013-03-06 20:12:00,
2013-03-06 13:26:00,23.9,19.0,30.30,East,86,15.0,23.0,82,0.00,,,0.00,540,weatherlink.com 1.10,2013-03-06 20:26:00,
2013-03-06 13:42:00,24.8,20.0,30.29,SE,134,14.0,21.0,81,0.00,,,0.00,473,weatherlink.com 1.10,2013-03-06 20:42:00,
2013-03-06 13:57:00,25.7,21.0,30.28,SE,128,16.0,25.0,82,0.00,,,0.00,555,weatherlink.com 1.10,2013-03-06 20:57:00,
2013-03-06 14:27:00,25.4,21.0,30.28,NE,46,13.0,26.0,82,0.00,,,0.00,396,weatherlink.com 1.10,2013-03-06 21:27:00,
2013-03-06 14:42:00,26.0,21.0,30.27,ESE,106,15.0,22.0,82,0.00,,,0.00,496,weatherlink.com 1.10,2013-03-06 21:42:00,
2013-03-06 14:57:00,26.6,22.0,30.27,SE,146,14.0,23.0,82,0.00,,,0.00,482,weatherlink.com 1.10,2013-03-06 21:57:00,
2013-03-06 15:13:00,26.5,22.0,30.26,SSE,159,14.0,23.0,82,0.00,,,0.00,357,weatherlink.com 1.10,2013-03-06 22:13:00,
2013-03-06 15:28:00,26.7,22.0,30.25,ESE,121,17.0,24.0,83,0.00,,,0.00,304,weatherlink.com 1.10,2013-03-06 22:28:00,
2013-03-06 15:42:00,26.5,22.0,30.25,ESE,119,14.0,19.0,83,0.00,,,0.00,211,weatherlink.com 1.10,2013-03-06 22:42:00,
2013-03-06 15:58:00,27.1,23.0,30.25,SE,127,14.0,20.0,83,0.00,,,0.00,279,weatherlink.com 1.10,2013-03-06 22:58:00,
2013-03-06 16:12:00,27.1,23.0,30.24,ESE,105,18.0,24.0,83,0.00,,,0.00,163,weatherlink.com 1.10,2013-03-06 23:12:00,
2013-03-06 16:28:00,26.6,22.0,30.23,ESE,123,17.0,25.0,84,0.00,,,0.00,98,weatherlink.com 1.10,2013-03-06 23:28:00,
2013-03-06 16:43:00,26.4,22.0,30.23,ESE,116,13.0,24.0,84,0.00,,,0.00,76,weatherlink.com 1.10,2013-03-06 23:43:00,
2013-03-06 16:58:00,26.3,22.0,30.23,ESE,115,15.0,21.0,85,0.00,,,0.00,83,weatherlink.com 1.10,2013-03-06 23:58:00,
2013-03-06 17:13:00,26.2,23.0,30.24,SE,132,11.0,17.0,86,0.00,,,0.00,40,weatherlink.com 1.10,2013-03-07 00:13:00,
2013-03-06 17:28:00,26.0,22.0,30.23,SE,135,15.0,19.0,86,0.00,,,0.00,23,weatherlink.com 1.10,2013-03-07 00:28:00,
2013-03-06 17:43:00,26.0,23.0,30.24,SE,141,11.0,18.0,87,0.00,,,0.00,9,weatherlink.com 1.10,2013-03-07 00:43:00,
2013-03-06 17:59:00,25.8,23.0,30.23,East,84,11.0,19.0,87,0.00,,,0.00,0,weatherlink.com 1.10,2013-03-07 00:59:00,
2013-03-06 18:14:00,25.9,23.0,30.23,SE,141,12.0,18.0,87,0.00,,,0.00,0,weatherlink.com 1.10,2013-03-07 01:14:00,
2013-03-06 18:29:00,26.1,23.0,30.23,SE,138,12.0,18.0,87,0.00,,,0.00,0,weatherlink.com 1.10,2013-03-07 01:29:00,
2013-03-06 18:44:00,26.3,23.0,30.22,SE,131,16.0,21.0,87,0.00,,,0.00,0,weatherlink.com 1.10,2013-03-07 01:44:00,
2013-03-06 18:59:00,26.3,23.0,30.22,East,95,17.0,19.0,87,0.00,,,0.00,0,weatherlink.com 1.10,2013-03-07 01:59:00,
2013-03-06 19:14:00,26.2,23.0,30.22,ESE,123,16.0,22.0,87,0.00,,,0.00,0,weatherlink.com 1.10,2013-03-07 02:14:00,
2013-03-06 19:45:00,26.2,23.0,30.23,East,96,15.0,16.0,87,0.00,,,0.00,0,weatherlink.com 1.10,2013-03-07 02:45:00,
2013-03-06 19:59:00,26.3,23.0,30.23,SE,132,6.0,16.0,88,0.00,,,0.00,0,weatherlink.com 1.10,2013-03-07 02:59:00,
2013-03-06 20:15:00,25.9,23.0,30.22,East,101,7.0,15.0,88,0.00,,,0.00,0,weatherlink.com 1.10,2013-03-07 03:15:00,
2013-03-06 20:30:00,25.7,23.0,30.21,East,84,11.0,17.0,88,0.00,,,0.00,0,weatherlink.com 1.10,2013-03-07 03:30:00,
2013-03-06 21:15:00,25.2,22.0,30.19,ENE,74,13.0,22.0,88,0.00,,,0.00,0,weatherlink.com 1.10,2013-03-07 04:15:00,
2013-03-06 21:45:00,25.3,22.0,30.20,ESE,121,11.0,15.0,88,0.00,,,0.00,0,weatherlink.com 1.10,2013-03-07 04:45:00,
2013-03-06 22:15:00,25.3,22.0,30.20,SE,137,4.0,10.0,88,0.00,,,0.00,0,weatherlink.com 1.10,2013-03-07 05:15:00,
2013-03-06 22:46:00,25.3,22.0,30.19,SE,138,13.0,17.0,87,0.00,,,0.00,0,weatherlink.com 1.10,2013-03-07 05:46:00,
2013-03-06 23:16:00,25.2,22.0,30.19,East,83,9.0,16.0,87,0.00,,,0.00,0,weatherlink.com 1.10,2013-03-07 06:16:00,
2013-03-06 23:46:00,24.8,22.0,30.18,ESE,115,12.0,16.0,88,0.00,,,0.00,0,weatherlink.com 1.10,2013-03-07 06:46:00,